createdAt,value
2023-11-03T00:00:32.417Z,52.22
2023-11-03T00:03:35.326Z,52.30
2023-11-03T00:06:44.389Z,52.24
2023-11-03T00:09:47.399Z,52.19
2023-11-03T00:12:50.336Z,52.24
2023-11-03T00:15:53.452Z,52.15
2023-11-03T00:18:59.299Z,52.14
2023-11-03T00:22:03.883Z,52.13
2023-11-03T00:25:12.579Z,52.07
2023-11-03T00:28:16.458Z,52.22
2023-11-03T00:31:19.332Z,52.24
2023-11-03T00:34:22.151Z,52.19
2023-11-03T00:37:26.618Z,52.28
2023-11-03T00:40:29.498Z,52.33
2023-11-03T00:43:32.347Z,52.11
2023-11-03T00:46:35.246Z,52.34
2023-11-03T00:49:38.393Z,52.14
2023-11-03T00:52:42.781Z,51.98
2023-11-03T00:55:45.601Z,52.17
2023-11-03T00:58:48.464Z,52.23
2023-11-03T01:01:51.288Z,52.15
2023-11-03T01:04:54.445Z,52.16
2023-11-03T01:07:58.803Z,52.16
2023-11-03T01:11:02.594Z,51.92
2023-11-03T01:14:06.200Z,51.88
2023-11-03T01:17:09.696Z,51.82
2023-11-03T01:20:20.877Z,52.01
2023-11-03T01:23:25.277Z,52.13
2023-11-03T01:26:28.494Z,52.01
2023-11-03T01:29:31.860Z,52.07
2023-11-03T01:32:34.726Z,52.09
2023-11-03T01:35:38.505Z,52.11
2023-11-03T01:38:43.043Z,52.07
2023-11-03T01:41:45.957Z,51.93
2023-11-03T01:44:48.919Z,51.97
2023-11-03T01:47:51.834Z,52.05
2023-11-03T01:50:55.570Z,51.98
2023-11-03T01:54:00.563Z,52.19
2023-11-03T01:57:03.555Z,52.11
2023-11-03T02:00:07.993Z,51.89
2023-11-03T02:03:10.876Z,51.85
2023-11-03T02:06:13.785Z,51.93
2023-11-03T02:09:18.159Z,51.95
2023-11-03T02:12:21.037Z,51.95
2023-11-03T02:15:24.145Z,51.83
2023-11-03T02:18:27.045Z,51.90
2023-11-03T02:21:29.923Z,51.87
2023-11-03T02:24:34.110Z,52.01
2023-11-03T02:27:37.069Z,52.00
2023-11-03T02:30:40.834Z,51.90
2023-11-03T02:33:43.804Z,51.98
2023-11-03T02:36:46.653Z,52.00
2023-11-03T02:39:50.935Z,51.88
2023-11-03T02:42:53.766Z,51.83
2023-11-03T02:45:57.257Z,51.85
2023-11-03T02:49:00.242Z,52.07
2023-11-03T02:52:04.264Z,51.90
2023-11-03T02:55:09.011Z,51.79
2023-11-03T02:58:11.925Z,51.84
2023-11-03T03:01:15.057Z,51.95
2023-11-03T03:04:18.169Z,51.90
2023-11-03T03:07:21.280Z,51.89
2023-11-03T03:10:25.522Z,51.96
2023-11-03T03:13:28.372Z,51.87
2023-11-03T03:16:31.245Z,52.01
2023-11-03T03:19:34.133Z,51.90
2023-11-03T03:22:36.949Z,51.91
2023-11-03T03:25:41.316Z,51.73
2023-11-03T03:28:44.155Z,51.92
2023-11-03T03:31:47.024Z,51.94
2023-11-03T03:34:49.842Z,51.97
2023-11-03T03:37:52.729Z,51.80
2023-11-03T03:40:56.956Z,51.98
2023-11-03T03:43:59.911Z,52.02
2023-11-03T03:47:02.725Z,52.00
2023-11-03T03:50:06.213Z,52.00
2023-11-03T03:53:09.142Z,51.92
2023-11-03T03:56:14.598Z,52.14
2023-11-03T03:59:17.441Z,51.99
2023-11-03T04:02:20.296Z,52.01
2023-11-03T04:05:23.226Z,51.96
2023-11-03T04:08:26.120Z,51.92
2023-11-03T04:11:30.327Z,51.86
2023-11-03T04:14:33.101Z,51.85
2023-11-03T04:17:35.963Z,51.76
2023-11-03T04:20:39.900Z,51.92
2023-11-03T04:23:42.735Z,51.75
2023-11-03T04:26:47.644Z,51.94
2023-11-03T04:29:50.662Z,51.78
2023-11-03T04:32:53.535Z,52.02
2023-11-03T04:35:56.407Z,51.77
2023-11-03T04:38:59.293Z,51.88
2023-11-03T04:42:03.833Z,51.79
2023-11-03T04:45:07.586Z,51.85
2023-11-03T04:48:10.439Z,51.78
2023-11-03T04:51:13.308Z,51.84
2023-11-03T04:54:17.509Z,51.95
2023-11-03T04:57:23.521Z,51.86
2023-11-03T05:00:26.401Z,51.90
2023-11-03T05:03:29.301Z,51.78
2023-11-03T05:06:32.185Z,51.80
2023-11-03T05:09:36.180Z,51.63
2023-11-03T05:12:40.446Z,51.66
2023-11-03T05:15:43.349Z,51.86
2023-11-03T05:18:47.821Z,51.65
2023-11-03T05:21:51.232Z,51.75
2023-11-03T05:24:54.140Z,52.02
2023-11-03T05:27:58.395Z,51.71
2023-11-03T05:31:01.267Z,51.76
2023-11-03T05:34:04.745Z,51.83
2023-11-03T05:37:07.690Z,51.96
2023-11-03T05:40:12.757Z,51.96
2023-11-03T05:43:17.041Z,51.76
2023-11-03T05:46:19.929Z,51.82
2023-11-03T05:49:23.016Z,51.93
2023-11-03T05:52:26.137Z,51.92
2023-11-03T05:55:29.067Z,51.91
2023-11-03T05:58:33.302Z,51.88
2023-11-03T06:01:36.758Z,51.79
2023-11-03T06:04:39.722Z,51.82
2023-11-03T06:07:42.512Z,51.84
2023-11-03T06:10:45.353Z,51.80
2023-11-03T06:13:50.122Z,51.78
2023-11-03T06:16:53.163Z,51.73
2023-11-03T06:19:56.062Z,51.80
2023-11-03T06:22:58.947Z,51.81
2023-11-03T06:26:04.795Z,51.91
2023-11-03T06:29:09.091Z,51.72
2023-11-03T06:32:11.869Z,51.79
2023-11-03T06:35:15.111Z,51.82
2023-11-03T06:38:18.035Z,51.76
2023-11-03T06:41:21.884Z,51.82
2023-11-03T06:44:26.071Z,51.69
2023-11-03T06:47:28.933Z,51.76
2023-11-03T06:50:31.770Z,51.63
2023-11-03T06:53:34.695Z,51.69
2023-11-03T06:56:37.729Z,51.62
2023-11-03T06:59:42.952Z,51.74
2023-11-03T07:02:45.902Z,51.75
2023-11-03T07:05:48.818Z,51.67
2023-11-03T07:08:51.674Z,51.77
2023-11-03T07:11:56.094Z,51.81
2023-11-03T07:15:00.858Z,51.64
2023-11-03T07:18:03.755Z,51.81
2023-11-03T07:21:10.058Z,51.67
2023-11-03T07:24:12.990Z,51.73
2023-11-03T07:27:18.520Z,51.86
2023-11-03T07:30:23.193Z,51.69
2023-11-03T07:33:26.486Z,51.77
2023-11-03T07:36:30.415Z,51.63
2023-11-03T07:39:33.291Z,51.73
2023-11-03T07:42:36.258Z,51.84
2023-11-03T07:45:40.498Z,51.77
2023-11-03T07:48:47.966Z,51.67
2023-11-03T07:51:50.973Z,51.70
2023-11-03T07:54:53.795Z,51.69
2023-11-03T07:57:56.683Z,51.79
2023-11-03T08:01:00.965Z,51.70
2023-11-03T08:04:03.978Z,51.68
2023-11-03T08:07:07.136Z,51.73
2023-11-03T08:10:13.461Z,51.74
2023-11-03T08:13:17.451Z,51.71
2023-11-03T08:16:21.872Z,51.73
2023-11-03T08:19:25.041Z,51.64
2023-11-03T08:22:30.337Z,51.62
2023-11-03T08:25:33.314Z,51.67
2023-11-03T08:28:37.028Z,51.60
2023-11-03T08:31:43.589Z,51.56
2023-11-03T08:34:48.770Z,51.56
2023-11-03T08:37:53.593Z,51.49
2023-11-03T08:40:56.799Z,51.49
2023-11-03T08:43:59.691Z,51.46
2023-11-03T08:47:05.024Z,51.40
2023-11-03T08:50:08.320Z,51.45
2023-11-03T08:53:11.190Z,51.44
2023-11-03T08:56:14.768Z,51.50
2023-11-03T08:59:17.670Z,51.44
2023-11-03T09:02:22.121Z,51.40
2023-11-03T09:05:25.011Z,51.40
2023-11-03T09:08:27.942Z,51.34
2023-11-03T09:11:31.645Z,51.29
2023-11-03T09:14:34.812Z,51.47
2023-11-03T09:17:39.143Z,51.45
2023-11-03T09:20:42.012Z,51.40
2023-11-03T09:23:45.097Z,51.29
2023-11-03T09:26:55.315Z,51.41
2023-11-03T09:30:06.635Z,51.48
2023-11-03T09:33:11.267Z,51.48
2023-11-03T09:36:16.276Z,51.41
2023-11-03T09:39:19.115Z,51.35
2023-11-03T09:42:23.516Z,51.37
2023-11-03T09:45:28.526Z,51.37
2023-11-03T09:48:34.629Z,51.36
2023-11-03T09:51:40.820Z,51.34
2023-11-03T09:54:43.835Z,51.37
2023-11-03T09:57:47.892Z,51.36
2023-11-03T10:00:51.389Z,51.27
2023-11-03T10:03:55.760Z,51.31
2023-11-03T10:06:59.675Z,51.39
2023-11-03T10:10:02.552Z,51.33
2023-11-03T10:13:06.638Z,51.34
2023-11-03T10:16:09.947Z,51.37
2023-11-03T10:19:14.155Z,51.26
2023-11-03T10:22:16.992Z,51.21
2023-11-03T10:25:20.827Z,51.09
2023-11-03T10:28:26.022Z,51.20
2023-11-03T10:31:31.012Z,51.24
2023-11-03T10:34:36.037Z,51.02
2023-11-03T10:37:39.745Z,51.14
2023-11-03T10:40:44.542Z,51.06
2023-11-03T10:43:51.025Z,51.10
2023-11-03T10:46:54.875Z,50.99
2023-11-03T10:50:06.892Z,50.98
2023-11-03T10:53:15.378Z,51.13
2023-11-03T10:56:31.966Z,50.90
2023-11-03T10:59:42.289Z,51.35
2023-11-03T11:02:51.123Z,51.04
2023-11-03T11:05:59.198Z,51.28
2023-11-03T11:09:05.765Z,51.17
2023-11-03T11:12:08.925Z,51.11
2023-11-03T11:15:13.489Z,51.13
2023-11-03T11:18:17.150Z,51.27
2023-11-03T11:21:27.134Z,50.76
2023-11-03T11:24:32.967Z,51.21
2023-11-03T11:27:39.378Z,51.02
2023-11-03T11:30:42.317Z,51.08
2023-11-03T11:34:00.092Z,51.15
2023-11-03T11:37:28.726Z,51.29
2023-11-03T11:40:33.129Z,51.16
2023-11-03T11:43:44.960Z,51.11
2023-11-03T11:46:53.112Z,50.97
2023-11-03T11:49:57.170Z,51.30
2023-11-03T11:53:00.175Z,51.26
2023-11-03T11:56:07.025Z,51.37
2023-11-03T11:59:10.686Z,51.30
2023-11-03T12:02:13.660Z,51.28
2023-11-03T12:05:18.813Z,51.29
2023-11-03T12:08:21.766Z,51.31
2023-11-03T12:11:26.048Z,51.36
2023-11-03T12:14:28.869Z,51.46
2023-11-03T12:17:31.786Z,51.31
2023-11-03T12:20:34.705Z,51.20
2023-11-03T12:23:40.238Z,51.30
2023-11-03T12:26:44.536Z,51.35
2023-11-03T12:29:47.759Z,50.96
2023-11-03T12:32:50.854Z,51.28
2023-11-03T12:35:55.502Z,51.15
2023-11-03T12:38:58.963Z,51.33
2023-11-03T12:42:10.797Z,51.27
2023-11-03T12:45:14.046Z,51.31
2023-11-03T12:48:20.483Z,51.29
2023-11-03T12:51:31.414Z,51.18
2023-11-03T12:54:34.336Z,51.34
2023-11-03T12:57:40.581Z,51.29
2023-11-03T13:00:43.617Z,51.35
2023-11-03T13:03:47.976Z,51.40
2023-11-03T13:06:52.803Z,51.31
2023-11-03T13:09:55.746Z,51.41
2023-11-03T13:13:01.479Z,51.39
2023-11-03T13:16:06.502Z,51.28
2023-11-03T13:19:11.218Z,51.40
2023-11-03T13:22:15.629Z,51.34
2023-11-03T13:25:18.841Z,51.41
2023-11-03T13:28:25.555Z,51.41
2023-11-03T13:31:30.805Z,51.42
2023-11-03T13:34:34.671Z,51.24
2023-11-03T13:37:37.784Z,51.37
2023-11-03T13:40:40.723Z,51.21
2023-11-03T13:43:45.658Z,51.27
2023-11-03T13:46:49.088Z,51.19
2023-11-03T13:49:52.608Z,51.19
2023-11-03T13:52:56.328Z,51.23
2023-11-03T13:55:59.325Z,51.24
2023-11-03T13:59:03.574Z,51.33
2023-11-03T14:02:08.147Z,51.31
2023-11-03T14:05:12.788Z,51.31
2023-11-03T14:08:17.747Z,51.30
2023-11-03T14:11:20.848Z,51.28
2023-11-03T14:14:26.388Z,51.22
2023-11-03T14:17:29.283Z,51.12
2023-11-03T14:20:32.309Z,51.29
2023-11-03T14:23:35.153Z,51.27
2023-11-03T14:26:40.647Z,51.24
2023-11-03T14:29:45.025Z,51.30
2023-11-03T14:32:48.996Z,51.20
2023-11-03T14:35:51.837Z,51.34
2023-11-03T14:38:55.278Z,51.32
2023-11-03T14:41:58.138Z,51.16
2023-11-03T14:45:14.979Z,51.26
2023-11-03T14:48:19.365Z,51.16
2023-11-03T14:51:22.206Z,51.37
2023-11-03T14:54:25.078Z,51.24
2023-11-03T14:57:30.343Z,51.25
2023-11-03T15:00:36.777Z,51.10
2023-11-03T15:03:39.916Z,51.05
2023-11-03T15:06:42.812Z,51.21
2023-11-03T15:09:45.611Z,51.12
2023-11-03T15:12:48.526Z,51.24
2023-11-03T15:15:53.756Z,51.17
2023-11-03T15:18:57.780Z,51.16
2023-11-03T15:22:02.595Z,51.05
2023-11-03T15:25:06.124Z,51.36
2023-11-03T15:28:09.041Z,51.22
2023-11-03T15:31:13.390Z,50.96
2023-11-03T15:34:16.369Z,51.09
2023-11-03T15:37:19.407Z,51.01
2023-11-03T15:40:25.085Z,51.13
2023-11-03T15:43:28.179Z,51.44
2023-11-03T15:46:32.985Z,51.32
2023-11-03T15:49:35.909Z,51.26
2023-11-03T15:52:38.795Z,51.15
2023-11-03T15:55:41.681Z,51.35
2023-11-03T15:58:45.543Z,51.19
2023-11-03T16:01:50.602Z,51.73
2023-11-03T16:04:54.566Z,51.43
2023-11-03T16:07:57.393Z,51.73
2023-11-03T16:11:02.250Z,51.57
2023-11-03T16:14:05.161Z,51.25
2023-11-03T16:17:09.502Z,51.46
2023-11-03T16:20:12.940Z,51.54
2023-11-03T16:23:16.619Z,51.79
2023-11-03T16:26:19.459Z,51.62
2023-11-03T16:29:23.245Z,51.53
2023-11-03T16:32:28.071Z,51.67
2023-11-03T16:35:31.514Z,51.74
2023-11-03T16:38:35.178Z,52.07
2023-11-03T16:41:40.304Z,52.10
2023-11-03T16:44:43.248Z,52.02
2023-11-03T16:47:47.678Z,52.43
2023-11-03T16:50:50.591Z,52.25
2023-11-03T16:53:55.394Z,51.78
2023-11-03T16:56:59.203Z,51.87
2023-11-03T17:00:04.301Z,51.81
2023-11-03T17:03:09.031Z,51.98
2023-11-03T17:06:13.899Z,51.79
2023-11-03T17:09:22.105Z,51.77
2023-11-03T17:12:25.570Z,51.80
2023-11-03T17:15:28.644Z,51.59
2023-11-03T17:18:33.705Z,51.82
2023-11-03T17:21:36.737Z,51.70
2023-11-03T17:24:39.511Z,51.84
2023-11-03T17:27:42.346Z,52.11
2023-11-03T17:30:45.241Z,51.81
2023-11-03T17:33:49.570Z,51.81
2023-11-03T17:36:52.784Z,51.66
2023-11-03T17:39:55.697Z,51.76
2023-11-03T17:42:59.918Z,51.80
2023-11-03T17:46:03.053Z,52.12
2023-11-03T17:49:07.433Z,51.90
2023-11-03T17:52:10.626Z,52.05
2023-11-03T17:55:14.986Z,52.09
2023-11-03T17:58:18.214Z,51.88
2023-11-03T18:01:22.532Z,52.16
2023-11-03T18:04:27.309Z,51.75
2023-11-03T18:07:30.508Z,51.91
2023-11-03T18:10:34.483Z,51.82
2023-11-03T18:13:37.548Z,52.00
2023-11-03T18:16:40.643Z,52.01
2023-11-03T18:19:46.897Z,51.75
2023-11-03T18:22:51.533Z,51.86
2023-11-03T18:25:54.909Z,51.79
2023-11-03T18:28:57.969Z,51.71
2023-11-03T18:32:01.487Z,51.60
2023-11-03T18:35:06.583Z,51.95
2023-11-03T18:38:10.080Z,51.86
2023-11-03T18:41:15.059Z,51.72
2023-11-03T18:44:18.032Z,51.68
2023-11-03T18:47:21.003Z,51.69
2023-11-03T19:00:24.531Z,51.69
2023-11-03T19:09:26.978Z,51.76
2023-11-03T19:12:30.160Z,51.70
2023-11-03T19:15:33.325Z,51.76
2023-11-03T19:18:37.502Z,51.78
2023-11-03T19:21:44.256Z,51.64
2023-11-03T19:24:47.230Z,51.90
2023-11-03T19:27:50.062Z,51.60
2023-11-03T19:30:53.059Z,51.61
2023-11-03T19:33:57.530Z,51.75
2023-11-03T19:37:01.851Z,51.60
2023-11-03T19:40:10.043Z,51.63
2023-11-03T19:43:12.978Z,51.69
2023-11-03T19:46:16.004Z,51.54
2023-11-03T19:49:19.995Z,51.71
2023-11-03T19:52:24.352Z,51.77
2023-11-03T19:55:27.274Z,51.76
2023-11-03T19:58:31.654Z,51.66
2023-11-03T20:01:35.507Z,51.56
2023-11-03T20:04:38.420Z,51.56
2023-11-03T20:07:42.782Z,51.58
2023-11-03T20:10:46.724Z,51.88
2023-11-03T20:13:50.584Z,51.76
2023-11-03T20:16:53.650Z,52.07
2023-11-03T20:19:56.577Z,51.64
2023-11-03T20:23:01.206Z,51.83
2023-11-03T20:26:04.226Z,52.21
2023-11-03T20:29:10.146Z,52.21
2023-11-03T20:32:13.836Z,51.80
2023-11-03T20:35:19.146Z,51.89
2023-11-03T20:38:23.533Z,51.77
2023-11-03T20:41:26.312Z,51.75
2023-11-03T20:44:30.864Z,51.71
2023-11-03T20:47:35.087Z,51.62
2023-11-03T20:50:39.993Z,51.69
2023-11-03T20:53:44.203Z,51.82
2023-11-03T20:56:48.112Z,51.76
2023-11-03T20:59:50.934Z,51.65
2023-11-03T21:02:55.081Z,51.74
2023-11-03T21:05:59.733Z,51.87
2023-11-03T21:09:05.250Z,51.81
2023-11-03T21:12:08.892Z,51.67
2023-11-03T21:15:14.564Z,51.60
2023-11-03T21:18:18.731Z,51.91
2023-11-03T21:21:21.625Z,52.07
2023-11-03T21:24:27.859Z,51.70
2023-11-03T21:27:31.094Z,51.75
2023-11-03T21:30:34.028Z,51.88
2023-11-03T21:33:37.457Z,51.77
2023-11-03T21:36:40.407Z,51.72
2023-11-03T21:39:48.379Z,51.63
2023-11-03T21:42:51.646Z,51.97
2023-11-03T21:45:55.473Z,51.75
2023-11-03T21:48:58.464Z,51.83
2023-11-03T21:52:01.448Z,51.92
2023-11-03T21:55:05.965Z,51.74
2023-11-03T21:58:11.640Z,51.82
2023-11-03T22:01:14.382Z,51.71
2023-11-03T22:04:17.276Z,52.08
2023-11-03T22:07:20.211Z,52.02
2023-11-03T22:10:24.351Z,51.92
2023-11-03T22:13:27.203Z,51.88
2023-11-03T22:16:30.462Z,51.71
2023-11-03T22:19:34.221Z,51.83
2023-11-03T22:22:38.398Z,52.04
2023-11-03T22:25:42.679Z,51.88
2023-11-03T22:28:45.559Z,52.09
2023-11-03T22:31:51.116Z,51.84
2023-11-03T22:34:54.044Z,51.94
2023-11-03T22:37:56.832Z,51.83
2023-11-03T22:41:01.028Z,51.77
2023-11-03T22:44:04.116Z,51.88
2023-11-03T22:47:07.014Z,51.77
2023-11-03T22:50:10.444Z,52.05
2023-11-03T22:53:13.528Z,51.92
2023-11-03T22:56:21.477Z,51.69
2023-11-03T22:59:24.255Z,51.81
2023-11-03T23:02:28.915Z,51.86
2023-11-03T23:05:32.016Z,51.72
2023-11-03T23:08:35.884Z,51.79
2023-11-03T23:11:40.053Z,51.93
2023-11-03T23:14:42.914Z,52.04
2023-11-03T23:17:45.917Z,51.85
2023-11-03T23:20:49.682Z,51.89
2023-11-03T23:23:53.515Z,51.84
2023-11-03T23:26:58.245Z,51.88
2023-11-03T23:30:01.560Z,52.11
2023-11-03T23:33:04.680Z,51.72
2023-11-03T23:36:07.962Z,51.78
2023-11-03T23:39:10.743Z,51.65
2023-11-03T23:42:15.118Z,51.76
2023-11-03T23:45:18.022Z,51.78
2023-11-03T23:48:23.010Z,51.72
2023-11-03T23:51:25.885Z,52.05
2023-11-03T23:54:28.872Z,51.95
2023-11-03T23:57:33.092Z,51.85
